sensor_id;sensor_type;location;lat;lon;timestamp;P1;durP1;ratioP1;P2;durP2;ratioP2
3083;SDS011;1552;51.952;7.618;2022-12-08T00:02:06;24.07;;;14.27;;
3083;SDS011;1552;51.952;7.618;2022-12-08T00:04:33;24.20;;;14.13;;
3083;SDS011;1552;51.952;7.618;2022-12-08T00:07:19;24.93;;;15.10;;
3083;SDS011;1552;51.952;7.618;2022-12-08T00:10:04;31.43;;;16.03;;
3083;SDS011;1552;51.952;7.618;2022-12-08T00:12:31;25.20;;;15.03;;
3083;SDS011;1552;51.952;7.618;2022-12-08T00:14:57;26.03;;;15.00;;
3083;SDS011;1552;51.952;7.618;2022-12-08T00:17:23;24.47;;;16.03;;
3083;SDS011;1552;51.952;7.618;2022-12-08T00:19:50;24.13;;;16.20;;
3083;SDS011;1552;51.952;7.618;2022-12-08T00:22:16;22.53;;;13.67;;
3083;SDS011;1552;51.952;7.618;2022-12-08T00:24:42;23.60;;;15.17;;
3083;SDS011;1552;51.952;7.618;2022-12-08T00:27:13;20.77;;;13.13;;
3083;SDS011;1552;51.952;7.618;2022-12-08T00:29:39;28.17;;;15.37;;
3083;SDS011;1552;51.952;7.618;2022-12-08T00:32:07;23.50;;;13.93;;
3083;SDS011;1552;51.952;7.618;2022-12-08T00:34:34;23.77;;;14.90;;
3083;SDS011;1552;51.952;7.618;2022-12-08T00:39:31;24.30;;;15.60;;
3083;SDS011;1552;51.952;7.618;2022-12-08T00:41:57;27.20;;;16.23;;
3083;SDS011;1552;51.952;7.618;2022-12-08T00:44:41;23.37;;;15.33;;
3083;SDS011;1552;51.952;7.618;2022-12-08T00:47:07;27.97;;;16.30;;
3083;SDS011;1552;51.952;7.618;2022-12-08T00:49:33;23.77;;;14.63;;
3083;SDS011;1552;51.952;7.618;2022-12-08T00:52:00;25.60;;;15.67;;
3083;SDS011;1552;51.952;7.618;2022-12-08T00:54:29;25.47;;;14.33;;
3083;SDS011;1552;51.952;7.618;2022-12-08T00:56:56;26.40;;;15.27;;
3083;SDS011;1552;51.952;7.618;2022-12-08T00:59:22;25.07;;;15.27;;
3083;SDS011;1552;51.952;7.618;2022-12-08T01:01:50;28.23;;;17.13;;
3083;SDS011;1552;51.952;7.618;2022-12-08T01:04:16;23.80;;;15.10;;
3083;SDS011;1552;51.952;7.618;2022-12-08T01:06:43;23.63;;;14.90;;
3083;SDS011;1552;51.952;7.618;2022-12-08T01:09:10;22.63;;;14.97;;
3083;SDS011;1552;51.952;7.618;2022-12-08T01:11:37;23.50;;;14.57;;
3083;SDS011;1552;51.952;7.618;2022-12-08T01:14:03;28.80;;;16.93;;
3083;SDS011;1552;51.952;7.618;2022-12-08T01:16:30;21.77;;;15.10;;
3083;SDS011;1552;51.952;7.618;2022-12-08T01:18:58;28.33;;;16.10;;
3083;SDS011;1552;51.952;7.618;2022-12-08T01:21:25;21.40;;;14.13;;
3083;SDS011;1552;51.952;7.618;2022-12-08T01:23:51;23.73;;;15.07;;
3083;SDS011;1552;51.952;7.618;2022-12-08T01:26:18;21.57;;;14.53;;
3083;SDS011;1552;51.952;7.618;2022-12-08T01:28:45;26.87;;;15.60;;
3083;SDS011;1552;51.952;7.618;2022-12-08T01:31:12;21.60;;;14.13;;
3083;SDS011;1552;51.952;7.618;2022-12-08T01:33:39;27.40;;;14.90;;
3083;SDS011;1552;51.952;7.618;2022-12-08T01:36:07;23.67;;;15.23;;
3083;SDS011;1552;51.952;7.618;2022-12-08T01:38:33;27.20;;;15.73;;
3083;SDS011;1552;51.952;7.618;2022-12-08T01:40:59;23.63;;;14.17;;
3083;SDS011;1552;51.952;7.618;2022-12-08T01:46:07;18.60;;;14.03;;
3083;SDS011;1552;51.952;7.618;2022-12-08T01:48:33;24.83;;;15.70;;
3083;SDS011;1552;51.952;7.618;2022-12-08T01:51:00;26.70;;;15.00;;
3083;SDS011;1552;51.952;7.618;2022-12-08T01:53:28;25.37;;;14.80;;
3083;SDS011;1552;51.952;7.618;2022-12-08T01:55:57;23.80;;;14.53;;
3083;SDS011;1552;51.952;7.618;2022-12-08T01:58:24;20.20;;;13.97;;
3083;SDS011;1552;51.952;7.618;2022-12-08T02:00:52;22.33;;;14.57;;
3083;SDS011;1552;51.952;7.618;2022-12-08T02:03:19;20.03;;;13.60;;
3083;SDS011;1552;51.952;7.618;2022-12-08T02:05:46;21.53;;;14.17;;
3083;SDS011;1552;51.952;7.618;2022-12-08T02:08:13;19.87;;;13.53;;
3083;SDS011;1552;51.952;7.618;2022-12-08T02:10:41;21.27;;;13.93;;
3083;SDS011;1552;51.952;7.618;2022-12-08T02:13:08;20.17;;;13.60;;
3083;SDS011;1552;51.952;7.618;2022-12-08T02:15:37;24.87;;;14.33;;
3083;SDS011;1552;51.952;7.618;2022-12-08T02:18:10;21.97;;;14.20;;
3083;SDS011;1552;51.952;7.618;2022-12-08T02:20:43;22.10;;;14.23;;
3083;SDS011;1552;51.952;7.618;2022-12-08T02:23:17;21.50;;;13.20;;
3083;SDS011;1552;51.952;7.618;2022-12-08T02:25:58;18.57;;;13.50;;
3083;SDS011;1552;51.952;7.618;2022-12-08T02:28:38;24.63;;;13.47;;
3083;SDS011;1552;51.952;7.618;2022-12-08T02:31:09;22.73;;;13.57;;
3083;SDS011;1552;51.952;7.618;2022-12-08T02:36:27;20.03;;;12.67;;
3083;SDS011;1552;51.952;7.618;2022-12-08T02:38:55;20.27;;;14.27;;
3083;SDS011;1552;51.952;7.618;2022-12-08T02:41:28;18.70;;;13.23;;
3083;SDS011;1552;51.952;7.618;2022-12-08T02:43:58;18.73;;;13.97;;
3083;SDS011;1552;51.952;7.618;2022-12-08T02:46:26;21.13;;;13.53;;
3083;SDS011;1552;51.952;7.618;2022-12-08T02:48:53;17.13;;;12.73;;
3083;SDS011;1552;51.952;7.618;2022-12-08T02:51:20;22.03;;;13.97;;
3083;SDS011;1552;51.952;7.618;2022-12-08T02:53:48;19.90;;;13.53;;
3083;SDS011;1552;51.952;7.618;2022-12-08T02:56:18;18.93;;;12.83;;
3083;SDS011;1552;51.952;7.618;2022-12-08T02:58:52;20.40;;;12.60;;
3083;SDS011;1552;51.952;7.618;2022-12-08T03:01:30;19.33;;;13.73;;
3083;SDS011;1552;51.952;7.618;2022-12-08T03:04:01;19.10;;;12.50;;
3083;SDS011;1552;51.952;7.618;2022-12-08T03:06:29;20.53;;;13.17;;
3083;SDS011;1552;51.952;7.618;2022-12-08T03:08:59;17.70;;;12.37;;
3083;SDS011;1552;51.952;7.618;2022-12-08T03:11:29;21.57;;;13.87;;
3083;SDS011;1552;51.952;7.618;2022-12-08T03:13:56;20.60;;;13.80;;
3083;SDS011;1552;51.952;7.618;2022-12-08T03:16:24;18.67;;;13.23;;
3083;SDS011;1552;51.952;7.618;2022-12-08T03:18:51;17.77;;;13.27;;
3083;SDS011;1552;51.952;7.618;2022-12-08T03:21:19;18.53;;;12.90;;
3083;SDS011;1552;51.952;7.618;2022-12-08T03:23:46;23.10;;;14.53;;
3083;SDS011;1552;51.952;7.618;2022-12-08T03:26:17;25.37;;;15.17;;
3083;SDS011;1552;51.952;7.618;2022-12-08T03:28:44;22.90;;;15.80;;
3083;SDS011;1552;51.952;7.618;2022-12-08T03:31:11;22.80;;;15.83;;
3083;SDS011;1552;51.952;7.618;2022-12-08T03:33:39;23.43;;;16.53;;
3083;SDS011;1552;51.952;7.618;2022-12-08T03:36:06;24.57;;;15.80;;
3083;SDS011;1552;51.952;7.618;2022-12-08T03:38:35;23.27;;;16.87;;
3083;SDS011;1552;51.952;7.618;2022-12-08T03:41:02;23.63;;;16.77;;
3083;SDS011;1552;51.952;7.618;2022-12-08T03:43:45;24.43;;;18.27;;
3083;SDS011;1552;51.952;7.618;2022-12-08T03:46:12;26.73;;;16.97;;
3083;SDS011;1552;51.952;7.618;2022-12-08T03:48:38;22.70;;;16.03;;
3083;SDS011;1552;51.952;7.618;2022-12-08T03:51:05;26.87;;;17.97;;
3083;SDS011;1552;51.952;7.618;2022-12-08T03:53:31;21.60;;;16.17;;
3083;SDS011;1552;51.952;7.618;2022-12-08T03:55:57;26.63;;;17.90;;
3083;SDS011;1552;51.952;7.618;2022-12-08T03:58:23;22.83;;;16.50;;
3083;SDS011;1552;51.952;7.618;2022-12-08T04:00:51;25.33;;;17.90;;
3083;SDS011;1552;51.952;7.618;2022-12-08T04:03:17;26.33;;;16.90;;
3083;SDS011;1552;51.952;7.618;2022-12-08T04:05:45;25.03;;;17.13;;
3083;SDS011;1552;51.952;7.618;2022-12-08T04:08:12;25.33;;;17.03;;
3083;SDS011;1552;51.952;7.618;2022-12-08T04:10:39;25.37;;;16.80;;
3083;SDS011;1552;51.952;7.618;2022-12-08T04:13:05;26.07;;;17.67;;
3083;SDS011;1552;51.952;7.618;2022-12-08T04:15:31;22.70;;;16.73;;
3083;SDS011;1552;51.952;7.618;2022-12-08T04:18:00;24.27;;;16.73;;
3083;SDS011;1552;51.952;7.618;2022-12-08T04:20:26;24.10;;;16.43;;
3083;SDS011;1552;51.952;7.618;2022-12-08T04:22:52;23.33;;;16.67;;
3083;SDS011;1552;51.952;7.618;2022-12-08T04:25:19;22.67;;;14.90;;
3083;SDS011;1552;51.952;7.618;2022-12-08T04:27:45;24.23;;;16.40;;
3083;SDS011;1552;51.952;7.618;2022-12-08T04:30:11;21.87;;;15.87;;
3083;SDS011;1552;51.952;7.618;2022-12-08T04:32:38;21.60;;;15.37;;
3083;SDS011;1552;51.952;7.618;2022-12-08T04:35:06;22.60;;;15.23;;
3083;SDS011;1552;51.952;7.618;2022-12-08T04:37:32;22.07;;;14.77;;
3083;SDS011;1552;51.952;7.618;2022-12-08T04:39:59;23.23;;;15.10;;
3083;SDS011;1552;51.952;7.618;2022-12-08T04:42:25;24.80;;;16.17;;
3083;SDS011;1552;51.952;7.618;2022-12-08T04:44:51;28.53;;;17.93;;
3083;SDS011;1552;51.952;7.618;2022-12-08T04:47:18;24.50;;;16.43;;
3083;SDS011;1552;51.952;7.618;2022-12-08T04:49:45;35.33;;;19.80;;
3083;SDS011;1552;51.952;7.618;2022-12-08T04:52:13;25.73;;;17.00;;
3083;SDS011;1552;51.952;7.618;2022-12-08T04:54:39;32.30;;;19.60;;
3083;SDS011;1552;51.952;7.618;2022-12-08T04:57:05;31.77;;;19.47;;
3083;SDS011;1552;51.952;7.618;2022-12-08T04:59:32;31.83;;;19.20;;
3083;SDS011;1552;51.952;7.618;2022-12-08T05:01:58;28.87;;;18.57;;
3083;SDS011;1552;51.952;7.618;2022-12-08T05:04:24;30.70;;;19.57;;
3083;SDS011;1552;51.952;7.618;2022-12-08T05:06:50;31.47;;;20.37;;
3083;SDS011;1552;51.952;7.618;2022-12-08T05:09:18;30.60;;;19.23;;
3083;SDS011;1552;51.952;7.618;2022-12-08T05:11:44;31.30;;;20.10;;
3083;SDS011;1552;51.952;7.618;2022-12-08T05:14:11;34.33;;;19.00;;
3083;SDS011;1552;51.952;7.618;2022-12-08T05:16:39;34.73;;;19.67;;
3083;SDS011;1552;51.952;7.618;2022-12-08T05:19:05;31.43;;;19.17;;
3083;SDS011;1552;51.952;7.618;2022-12-08T05:21:32;29.97;;;18.93;;
3083;SDS011;1552;51.952;7.618;2022-12-08T05:23:58;29.70;;;19.73;;
3083;SDS011;1552;51.952;7.618;2022-12-08T05:26:27;30.33;;;18.90;;
3083;SDS011;1552;51.952;7.618;2022-12-08T05:28:53;31.03;;;18.60;;
3083;SDS011;1552;51.952;7.618;2022-12-08T05:31:19;31.73;;;18.97;;
3083;SDS011;1552;51.952;7.618;2022-12-08T05:33:46;29.23;;;18.57;;
3083;SDS011;1552;51.952;7.618;2022-12-08T05:36:14;31.97;;;19.23;;
3083;SDS011;1552;51.952;7.618;2022-12-08T05:38:40;31.90;;;19.03;;
3083;SDS011;1552;51.952;7.618;2022-12-08T05:41:07;30.77;;;19.67;;
3083;SDS011;1552;51.952;7.618;2022-12-08T05:43:35;29.20;;;18.47;;
3083;SDS011;1552;51.952;7.618;2022-12-08T05:46:01;30.77;;;18.90;;
3083;SDS011;1552;51.952;7.618;2022-12-08T05:48:28;33.33;;;18.33;;
3083;SDS011;1552;51.952;7.618;2022-12-08T05:50:54;31.47;;;18.73;;
3083;SDS011;1552;51.952;7.618;2022-12-08T05:53:21;32.03;;;18.57;;
3083;SDS011;1552;51.952;7.618;2022-12-08T05:55:47;29.97;;;18.50;;
3083;SDS011;1552;51.952;7.618;2022-12-08T05:58:14;30.27;;;18.10;;
3083;SDS011;1552;51.952;7.618;2022-12-08T06:00:43;30.23;;;18.40;;
3083;SDS011;1552;51.952;7.618;2022-12-08T06:03:09;30.20;;;18.33;;
3083;SDS011;1552;51.952;7.618;2022-12-08T06:05:36;25.93;;;16.83;;
3083;SDS011;1552;51.952;7.618;2022-12-08T06:08:02;26.00;;;15.97;;
3083;SDS011;1552;51.952;7.618;2022-12-08T06:10:29;27.67;;;17.93;;
3083;SDS011;1552;51.952;7.618;2022-12-08T06:12:55;29.37;;;17.83;;
3083;SDS011;1552;51.952;7.618;2022-12-08T06:15:21;27.67;;;17.30;;
3083;SDS011;1552;51.952;7.618;2022-12-08T06:17:49;24.00;;;15.20;;
3083;SDS011;1552;51.952;7.618;2022-12-08T06:20:16;26.93;;;16.47;;
3083;SDS011;1552;51.952;7.618;2022-12-08T06:22:43;24.43;;;15.63;;
3083;SDS011;1552;51.952;7.618;2022-12-08T06:25:09;24.67;;;15.30;;
3083;SDS011;1552;51.952;7.618;2022-12-08T06:27:36;25.87;;;16.03;;
3083;SDS011;1552;51.952;7.618;2022-12-08T06:30:02;25.37;;;15.60;;
3083;SDS011;1552;51.952;7.618;2022-12-08T06:32:29;24.77;;;15.03;;
3083;SDS011;1552;51.952;7.618;2022-12-08T06:34:57;26.37;;;15.30;;
3083;SDS011;1552;51.952;7.618;2022-12-08T06:37:23;24.83;;;14.30;;
3083;SDS011;1552;51.952;7.618;2022-12-08T06:39:49;22.20;;;14.47;;
3083;SDS011;1552;51.952;7.618;2022-12-08T06:42:16;20.67;;;13.07;;
3083;SDS011;1552;51.952;7.618;2022-12-08T06:45:00;21.30;;;13.47;;
3083;SDS011;1552;51.952;7.618;2022-12-08T06:47:27;23.13;;;14.37;;
3083;SDS011;1552;51.952;7.618;2022-12-08T06:49:53;21.23;;;14.17;;
3083;SDS011;1552;51.952;7.618;2022-12-08T06:52:21;22.47;;;13.77;;
3083;SDS011;1552;51.952;7.618;2022-12-08T06:54:47;21.97;;;14.10;;
3083;SDS011;1552;51.952;7.618;2022-12-08T06:57:13;22.47;;;13.37;;
3083;SDS011;1552;51.952;7.618;2022-12-08T06:59:39;24.17;;;15.13;;
3083;SDS011;1552;51.952;7.618;2022-12-08T07:02:06;23.07;;;14.10;;
3083;SDS011;1552;51.952;7.618;2022-12-08T07:04:32;23.50;;;14.57;;
3083;SDS011;1552;51.952;7.618;2022-12-08T07:06:58;20.83;;;13.87;;
3083;SDS011;1552;51.952;7.618;2022-12-08T07:09:26;26.83;;;14.80;;
3083;SDS011;1552;51.952;7.618;2022-12-08T07:11:52;21.87;;;14.57;;
3083;SDS011;1552;51.952;7.618;2022-12-08T07:14:18;20.93;;;13.13;;
3083;SDS011;1552;51.952;7.618;2022-12-08T07:16:48;23.77;;;14.50;;
3083;SDS011;1552;51.952;7.618;2022-12-08T07:19:15;22.30;;;13.53;;
3083;SDS011;1552;51.952;7.618;2022-12-08T07:21:41;22.40;;;15.87;;
3083;SDS011;1552;51.952;7.618;2022-12-08T07:24:08;20.73;;;13.50;;
3083;SDS011;1552;51.952;7.618;2022-12-08T07:26:36;23.50;;;15.07;;
3083;SDS011;1552;51.952;7.618;2022-12-08T07:29:03;21.50;;;13.40;;
3083;SDS011;1552;51.952;7.618;2022-12-08T07:31:30;21.00;;;12.80;;
3083;SDS011;1552;51.952;7.618;2022-12-08T07:33:57;19.20;;;12.53;;
3083;SDS011;1552;51.952;7.618;2022-12-08T07:36:24;17.00;;;12.50;;
3083;SDS011;1552;51.952;7.618;2022-12-08T07:38:50;19.57;;;11.83;;
3083;SDS011;1552;51.952;7.618;2022-12-08T07:41:18;18.80;;;12.17;;
3083;SDS011;1552;51.952;7.618;2022-12-08T07:43:46;18.17;;;11.93;;
3083;SDS011;1552;51.952;7.618;2022-12-08T07:46:13;18.63;;;12.40;;
3083;SDS011;1552;51.952;7.618;2022-12-08T07:48:39;17.13;;;11.40;;
3083;SDS011;1552;51.952;7.618;2022-12-08T07:51:05;13.37;;;10.10;;
3083;SDS011;1552;51.952;7.618;2022-12-08T07:53:32;13.70;;;9.37;;
3083;SDS011;1552;51.952;7.618;2022-12-08T07:55:58;13.80;;;9.27;;
3083;SDS011;1552;51.952;7.618;2022-12-08T07:58:24;11.83;;;8.33;;
3083;SDS011;1552;51.952;7.618;2022-12-08T08:00:52;13.07;;;9.13;;
3083;SDS011;1552;51.952;7.618;2022-12-08T08:03:19;14.17;;;10.03;;
3083;SDS011;1552;51.952;7.618;2022-12-08T08:05:46;12.73;;;9.37;;
3083;SDS011;1552;51.952;7.618;2022-12-08T08:08:14;13.00;;;9.67;;
3083;SDS011;1552;51.952;7.618;2022-12-08T08:10:40;14.83;;;10.23;;
3083;SDS011;1552;51.952;7.618;2022-12-08T08:13:06;12.10;;;9.50;;
3083;SDS011;1552;51.952;7.618;2022-12-08T08:15:33;12.37;;;8.97;;
3083;SDS011;1552;51.952;7.618;2022-12-08T08:18:00;11.87;;;8.93;;
3083;SDS011;1552;51.952;7.618;2022-12-08T08:20:27;14.13;;;9.27;;
3083;SDS011;1552;51.952;7.618;2022-12-08T08:22:53;13.53;;;9.67;;
3083;SDS011;1552;51.952;7.618;2022-12-08T08:25:19;13.33;;;9.03;;
3083;SDS011;1552;51.952;7.618;2022-12-08T08:27:47;12.60;;;8.97;;
3083;SDS011;1552;51.952;7.618;2022-12-08T08:30:14;12.00;;;8.97;;
3083;SDS011;1552;51.952;7.618;2022-12-08T08:32:41;15.30;;;8.40;;
3083;SDS011;1552;51.952;7.618;2022-12-08T08:35:09;12.13;;;8.53;;
3083;SDS011;1552;51.952;7.618;2022-12-08T08:37:35;12.07;;;7.97;;
3083;SDS011;1552;51.952;7.618;2022-12-08T08:40:02;8.77;;;6.20;;
3083;SDS011;1552;51.952;7.618;2022-12-08T08:42:28;7.37;;;5.80;;
3083;SDS011;1552;51.952;7.618;2022-12-08T08:44:55;8.00;;;6.20;;
3083;SDS011;1552;51.952;7.618;2022-12-08T08:47:22;7.63;;;6.03;;
3083;SDS011;1552;51.952;7.618;2022-12-08T08:49:48;7.67;;;5.80;;
3083;SDS011;1552;51.952;7.618;2022-12-08T08:52:16;9.47;;;6.50;;
3083;SDS011;1552;51.952;7.618;2022-12-08T08:54:42;9.23;;;6.63;;
3083;SDS011;1552;51.952;7.618;2022-12-08T08:57:08;7.43;;;5.63;;
3083;SDS011;1552;51.952;7.618;2022-12-08T08:59:35;6.70;;;5.20;;
3083;SDS011;1552;51.952;7.618;2022-12-08T09:02:01;5.77;;;4.60;;
3083;SDS011;1552;51.952;7.618;2022-12-08T09:04:27;7.60;;;5.40;;
3083;SDS011;1552;51.952;7.618;2022-12-08T09:06:54;6.47;;;4.83;;
3083;SDS011;1552;51.952;7.618;2022-12-08T09:09:21;6.13;;;4.80;;
3083;SDS011;1552;51.952;7.618;2022-12-08T09:11:48;6.30;;;5.07;;
3083;SDS011;1552;51.952;7.618;2022-12-08T09:14:14;6.47;;;5.20;;
3083;SDS011;1552;51.952;7.618;2022-12-08T09:16:40;7.17;;;5.60;;
3083;SDS011;1552;51.952;7.618;2022-12-08T09:19:07;6.73;;;5.33;;
3083;SDS011;1552;51.952;7.618;2022-12-08T09:21:33;10.10;;;6.10;;
3083;SDS011;1552;51.952;7.618;2022-12-08T09:23:59;8.30;;;5.93;;
3083;SDS011;1552;51.952;7.618;2022-12-08T09:26:27;8.53;;;6.17;;
3083;SDS011;1552;51.952;7.618;2022-12-08T09:28:54;8.03;;;6.03;;
3083;SDS011;1552;51.952;7.618;2022-12-08T09:31:22;9.30;;;6.60;;
3083;SDS011;1552;51.952;7.618;2022-12-08T09:33:48;8.97;;;6.53;;
3083;SDS011;1552;51.952;7.618;2022-12-08T09:36:16;8.37;;;6.43;;
3083;SDS011;1552;51.952;7.618;2022-12-08T09:38:42;10.20;;;6.43;;
3083;SDS011;1552;51.952;7.618;2022-12-08T09:41:13;8.23;;;6.30;;
3083;SDS011;1552;51.952;7.618;2022-12-08T09:43:47;8.50;;;6.07;;
3083;SDS011;1552;51.952;7.618;2022-12-08T09:46:17;9.33;;;6.07;;
3083;SDS011;1552;51.952;7.618;2022-12-08T09:48:44;7.67;;;5.90;;
3083;SDS011;1552;51.952;7.618;2022-12-08T09:51:12;8.30;;;6.07;;
3083;SDS011;1552;51.952;7.618;2022-12-08T09:53:41;8.00;;;6.20;;
3083;SDS011;1552;51.952;7.618;2022-12-08T09:56:11;6.40;;;5.47;;
3083;SDS011;1552;51.952;7.618;2022-12-08T09:58:41;8.70;;;5.67;;
3083;SDS011;1552;51.952;7.618;2022-12-08T10:01:11;7.47;;;5.40;;
3083;SDS011;1552;51.952;7.618;2022-12-08T10:03:37;7.97;;;5.70;;
3083;SDS011;1552;51.952;7.618;2022-12-08T10:06:06;8.77;;;5.70;;
3083;SDS011;1552;51.952;7.618;2022-12-08T10:08:36;8.20;;;5.93;;
3083;SDS011;1552;51.952;7.618;2022-12-08T10:11:08;7.40;;;5.40;;
3083;SDS011;1552;51.952;7.618;2022-12-08T10:13:37;6.63;;;5.30;;
3083;SDS011;1552;51.952;7.618;2022-12-08T10:16:08;6.83;;;4.97;;
3083;SDS011;1552;51.952;7.618;2022-12-08T10:18:37;7.57;;;5.70;;
3083;SDS011;1552;51.952;7.618;2022-12-08T10:21:10;9.33;;;6.57;;
3083;SDS011;1552;51.952;7.618;2022-12-08T10:23:38;7.83;;;6.30;;
3083;SDS011;1552;51.952;7.618;2022-12-08T10:26:05;9.83;;;6.27;;
3083;SDS011;1552;51.952;7.618;2022-12-08T10:28:32;8.23;;;6.10;;
3083;SDS011;1552;51.952;7.618;2022-12-08T10:30:59;7.30;;;5.43;;
3083;SDS011;1552;51.952;7.618;2022-12-08T10:33:25;8.77;;;6.20;;
3083;SDS011;1552;51.952;7.618;2022-12-08T10:35:55;6.47;;;5.47;;
3083;SDS011;1552;51.952;7.618;2022-12-08T10:38:25;8.10;;;5.13;;
3083;SDS011;1552;51.952;7.618;2022-12-08T10:40:52;6.37;;;4.90;;
3083;SDS011;1552;51.952;7.618;2022-12-08T10:43:23;5.87;;;4.77;;
3083;SDS011;1552;51.952;7.618;2022-12-08T10:45:49;6.97;;;5.10;;
3083;SDS011;1552;51.952;7.618;2022-12-08T10:48:17;6.70;;;5.53;;
3083;SDS011;1552;51.952;7.618;2022-12-08T10:50:44;6.30;;;4.63;;
3083;SDS011;1552;51.952;7.618;2022-12-08T10:53:13;9.63;;;5.50;;
3083;SDS011;1552;51.952;7.618;2022-12-08T10:55:41;7.07;;;5.07;;
3083;SDS011;1552;51.952;7.618;2022-12-08T10:58:24;6.97;;;5.30;;
3083;SDS011;1552;51.952;7.618;2022-12-08T11:00:52;6.77;;;4.53;;
3083;SDS011;1552;51.952;7.618;2022-12-08T11:03:21;6.53;;;5.17;;
3083;SDS011;1552;51.952;7.618;2022-12-08T11:05:48;6.33;;;4.93;;
3083;SDS011;1552;51.952;7.618;2022-12-08T11:08:15;9.27;;;4.10;;
3083;SDS011;1552;51.952;7.618;2022-12-08T11:10:42;4.07;;;3.47;;
3083;SDS011;1552;51.952;7.618;2022-12-08T11:13:12;5.43;;;4.30;;
3083;SDS011;1552;51.952;7.618;2022-12-08T11:15:41;5.67;;;4.40;;
3083;SDS011;1552;51.952;7.618;2022-12-08T11:18:19;5.10;;;3.90;;
3083;SDS011;1552;51.952;7.618;2022-12-08T11:20:47;6.80;;;3.90;;
3083;SDS011;1552;51.952;7.618;2022-12-08T11:23:23;5.03;;;3.97;;
3083;SDS011;1552;51.952;7.618;2022-12-08T11:25:49;5.67;;;3.97;;
3083;SDS011;1552;51.952;7.618;2022-12-08T11:28:17;4.77;;;3.57;;
3083;SDS011;1552;51.952;7.618;2022-12-08T11:30:46;4.63;;;3.83;;
3083;SDS011;1552;51.952;7.618;2022-12-08T11:33:15;5.00;;;3.90;;
3083;SDS011;1552;51.952;7.618;2022-12-08T11:35:43;5.70;;;3.87;;
3083;SDS011;1552;51.952;7.618;2022-12-08T11:38:11;5.73;;;4.07;;
3083;SDS011;1552;51.952;7.618;2022-12-08T11:40:41;7.37;;;3.93;;
3083;SDS011;1552;51.952;7.618;2022-12-08T11:43:11;5.67;;;4.23;;
3083;SDS011;1552;51.952;7.618;2022-12-08T11:45:40;6.50;;;4.67;;
3083;SDS011;1552;51.952;7.618;2022-12-08T11:48:09;5.30;;;4.40;;
3083;SDS011;1552;51.952;7.618;2022-12-08T11:50:38;7.17;;;5.37;;
3083;SDS011;1552;51.952;7.618;2022-12-08T11:53:07;7.30;;;5.53;;
3083;SDS011;1552;51.952;7.618;2022-12-08T11:55:40;7.80;;;5.30;;
3083;SDS011;1552;51.952;7.618;2022-12-08T11:58:10;6.67;;;5.33;;
3083;SDS011;1552;51.952;7.618;2022-12-08T12:00:39;6.13;;;5.07;;
3083;SDS011;1552;51.952;7.618;2022-12-08T12:03:06;7.20;;;4.70;;
3083;SDS011;1552;51.952;7.618;2022-12-08T12:05:36;6.27;;;4.87;;
3083;SDS011;1552;51.952;7.618;2022-12-08T12:08:08;8.57;;;5.77;;
3083;SDS011;1552;51.952;7.618;2022-12-08T12:10:49;7.43;;;5.37;;
3083;SDS011;1552;51.952;7.618;2022-12-08T12:16:09;8.80;;;5.70;;
3083;SDS011;1552;51.952;7.618;2022-12-08T12:18:40;8.77;;;5.77;;
3083;SDS011;1552;51.952;7.618;2022-12-08T12:21:11;9.37;;;5.90;;
3083;SDS011;1552;51.952;7.618;2022-12-08T12:23:40;7.43;;;5.37;;
3083;SDS011;1552;51.952;7.618;2022-12-08T12:26:15;8.37;;;5.90;;
3083;SDS011;1552;51.952;7.618;2022-12-08T12:28:43;7.90;;;6.07;;
3083;SDS011;1552;51.952;7.618;2022-12-08T12:31:10;7.57;;;5.73;;
3083;SDS011;1552;51.952;7.618;2022-12-08T12:33:38;8.83;;;6.20;;
3083;SDS011;1552;51.952;7.618;2022-12-08T12:36:05;8.27;;;6.07;;
3083;SDS011;1552;51.952;7.618;2022-12-08T12:38:33;9.50;;;6.77;;
3083;SDS011;1552;51.952;7.618;2022-12-08T12:41:21;7.57;;;5.97;;
3083;SDS011;1552;51.952;7.618;2022-12-08T12:46:39;7.17;;;5.50;;
3083;SDS011;1552;51.952;7.618;2022-12-08T12:51:53;9.07;;;5.80;;
3083;SDS011;1552;51.952;7.618;2022-12-08T12:54:20;7.13;;;5.23;;
3083;SDS011;1552;51.952;7.618;2022-12-08T12:56:52;6.87;;;5.13;;
3083;SDS011;1552;51.952;7.618;2022-12-08T12:59:34;6.53;;;4.90;;
3083;SDS011;1552;51.952;7.618;2022-12-08T13:02:01;9.37;;;5.47;;
3083;SDS011;1552;51.952;7.618;2022-12-08T13:04:29;6.43;;;4.73;;
3083;SDS011;1552;51.952;7.618;2022-12-08T13:06:56;5.53;;;4.37;;
3083;SDS011;1552;51.952;7.618;2022-12-08T13:09:26;6.00;;;4.50;;
3083;SDS011;1552;51.952;7.618;2022-12-08T13:11:54;6.33;;;4.60;;
3083;SDS011;1552;51.952;7.618;2022-12-08T13:14:26;6.30;;;4.63;;
3083;SDS011;1552;51.952;7.618;2022-12-08T13:16:53;7.90;;;5.03;;
3083;SDS011;1552;51.952;7.618;2022-12-08T13:19:20;6.00;;;4.03;;
3083;SDS011;1552;51.952;7.618;2022-12-08T13:21:47;6.73;;;4.77;;
3083;SDS011;1552;51.952;7.618;2022-12-08T13:24:14;5.10;;;4.13;;
3083;SDS011;1552;51.952;7.618;2022-12-08T13:26:50;10.30;;;6.07;;
3083;SDS011;1552;51.952;7.618;2022-12-08T13:29:37;5.33;;;4.27;;
3083;SDS011;1552;51.952;7.618;2022-12-08T13:32:06;8.23;;;5.10;;
3083;SDS011;1552;51.952;7.618;2022-12-08T13:34:50;5.77;;;3.97;;
3083;SDS011;1552;51.952;7.618;2022-12-08T13:37:19;5.50;;;4.40;;
3083;SDS011;1552;51.952;7.618;2022-12-08T13:39:48;5.30;;;4.07;;
3083;SDS011;1552;51.952;7.618;2022-12-08T13:42:17;6.10;;;4.23;;
3083;SDS011;1552;51.952;7.618;2022-12-08T13:44:47;7.03;;;4.03;;
3083;SDS011;1552;51.952;7.618;2022-12-08T13:47:15;5.87;;;4.57;;
3083;SDS011;1552;51.952;7.618;2022-12-08T13:49:47;5.97;;;4.03;;
3083;SDS011;1552;51.952;7.618;2022-12-08T13:52:16;6.20;;;4.60;;
3083;SDS011;1552;51.952;7.618;2022-12-08T13:54:43;6.17;;;4.20;;
3083;SDS011;1552;51.952;7.618;2022-12-08T13:57:15;5.80;;;4.33;;
3083;SDS011;1552;51.952;7.618;2022-12-08T13:59:43;7.03;;;4.50;;
3083;SDS011;1552;51.952;7.618;2022-12-08T14:02:13;7.90;;;4.37;;
3083;SDS011;1552;51.952;7.618;2022-12-08T14:04:42;6.50;;;4.13;;
3083;SDS011;1552;51.952;7.618;2022-12-08T14:07:09;6.23;;;4.67;;
3083;SDS011;1552;51.952;7.618;2022-12-08T14:09:36;5.77;;;3.70;;
3083;SDS011;1552;51.952;7.618;2022-12-08T14:12:03;8.70;;;4.47;;
3083;SDS011;1552;51.952;7.618;2022-12-08T14:14:31;5.53;;;4.37;;
3083;SDS011;1552;51.952;7.618;2022-12-08T14:16:59;6.27;;;4.37;;
3083;SDS011;1552;51.952;7.618;2022-12-08T14:19:29;6.00;;;4.60;;
3083;SDS011;1552;51.952;7.618;2022-12-08T14:21:57;5.80;;;4.57;;
3083;SDS011;1552;51.952;7.618;2022-12-08T14:24:23;6.23;;;4.30;;
3083;SDS011;1552;51.952;7.618;2022-12-08T14:26:55;5.03;;;4.13;;
3083;SDS011;1552;51.952;7.618;2022-12-08T14:29:32;6.90;;;4.43;;
3083;SDS011;1552;51.952;7.618;2022-12-08T14:34:59;6.67;;;4.57;;
3083;SDS011;1552;51.952;7.618;2022-12-08T14:37:27;6.00;;;4.40;;
3083;SDS011;1552;51.952;7.618;2022-12-08T14:39:56;7.73;;;4.17;;
3083;SDS011;1552;51.952;7.618;2022-12-08T14:42:23;6.87;;;4.50;;
3083;SDS011;1552;51.952;7.618;2022-12-08T14:45:00;4.63;;;3.93;;
3083;SDS011;1552;51.952;7.618;2022-12-08T14:47:28;6.60;;;4.70;;
3083;SDS011;1552;51.952;7.618;2022-12-08T14:49:55;6.83;;;3.90;;
3083;SDS011;1552;51.952;7.618;2022-12-08T14:52:23;7.40;;;4.23;;
3083;SDS011;1552;51.952;7.618;2022-12-08T14:54:50;7.37;;;4.63;;
3083;SDS011;1552;51.952;7.618;2022-12-08T14:57:16;7.13;;;4.57;;
3083;SDS011;1552;51.952;7.618;2022-12-08T14:59:43;6.53;;;5.07;;
3083;SDS011;1552;51.952;7.618;2022-12-08T15:02:18;5.67;;;4.70;;
3083;SDS011;1552;51.952;7.618;2022-12-08T15:04:47;7.27;;;4.97;;
3083;SDS011;1552;51.952;7.618;2022-12-08T15:07:15;7.13;;;5.10;;
3083;SDS011;1552;51.952;7.618;2022-12-08T15:09:46;6.30;;;4.63;;
3083;SDS011;1552;51.952;7.618;2022-12-08T15:12:18;6.43;;;4.63;;
3083;SDS011;1552;51.952;7.618;2022-12-08T15:14:53;6.38;;;4.43;;
3083;SDS011;1552;51.952;7.618;2022-12-08T15:17:30;5.97;;;4.27;;
3083;SDS011;1552;51.952;7.618;2022-12-08T15:19:58;7.20;;;4.83;;
3083;SDS011;1552;51.952;7.618;2022-12-08T15:22:25;8.27;;;5.37;;
3083;SDS011;1552;51.952;7.618;2022-12-08T15:24:53;6.63;;;4.30;;
3083;SDS011;1552;51.952;7.618;2022-12-08T15:27:19;7.50;;;4.73;;